Eland, WI (54427)

3:11 PM CDT on September 02, 2015 (GMT -0500)
Wittenberg Wi. | | Change Station
CLOSE
Current Station
Personal Weather Station
Location: Wittenberg, WI
Elevation: 1191 ft
Nearby Weather Stations

Elev 1191 ft 44.83 °N, 89.17 °W | Updated 46 seconds ago

Partly Cloudy
Partly Cloudy
80.6 °F
Feels Like 86 °F
N
3.4
Wind Variable Wind from NE
Gusts 4.9 mph

Today
High -- | Low -- °F
--% Chance of Precip.
Yesterday
High -- | Low -- °F
Precip. -- in
6:20 AM 7:32 PM
Waning Gibbous, 77% visible
Pressure 29.96 in
Visibility 1.8 miles
Clouds Scattered Clouds 2000 ft
Mostly Cloudy 3000 ft
Heat Index 86 °F
Dew Point 74 °F
Humidity 81%
Rainfall 0.00 in
Snow Depth Not available.
UV 1.0 out of 12
Pollen 10.00 out of 12
Air Quality Not available.
Flu Activity Not available.
SPECI KAUW 022008Z AUTO 02008KT 1 3/4SM +TSRA SCT020 BKN030 23/21 A2996 RMK AO2 LTG DSNT NE AND E RAB03 TSB1959 P0009 T02330206
Pressure 29.96 in
Visibility 1.8 miles
Clouds Scattered Clouds 2000 ft
Mostly Cloudy 3000 ft
Heat Index 86 °F
Dew Point 74 °F
Humidity 81%
Rainfall 0.00 in
Snow Depth Not available.
UV 1.0 out of 12
Pollen 10.00 out of 12
Air Quality Not available.
Flu Activity Not available.
SPECI KAUW 022008Z AUTO 02008KT 1 3/4SM +TSRA SCT020 BKN030 23/21 A2996 RMK AO2 LTG DSNT NE AND E RAB03 TSB1959 P0009 T02330206

10-Day Weather Forecast

×

Almanac

Astronomy

Sep. 02, 2015 Rise Set
Actual Time
Civil Twilight
Nautical Twilight
Astronomical Twilight
Moon
Length of Visible Light
Length of Day
Tomorrow will be .
, % of the Moon is Illuminated

Today's Extremes

State Highs State Lows

Community

WunderPhotos

Upload Photos

1,851,803 photos uploaded!

WunderBlogs® & News

Nearby

Air Quality

  Air Quality AQ Index Pollutant
Not available.

Snow Depth

Station Depth Elevation

Earthquake Activity

City Distance Mag. Time & Date
Minimum magnitude displayed is 2.5.

Coastal Water Temperatures

Place Temperature

Stations

Nearby Weather Stations

Station Location Temp. Windchill Dew Point Humidity Wind Precip. Elev Updated Type